createdAt,value
2022-11-30T00:01:14.056Z,30.17
2022-11-30T00:03:41.137Z,28.55
2022-11-30T00:06:10.251Z,27.33
2022-11-30T00:08:37.109Z,28.85
2022-11-30T00:11:15.238Z,27.55
2022-11-30T00:13:42.494Z,27.60
2022-11-30T00:16:09.911Z,29.17
2022-11-30T00:18:37.394Z,30.08
2022-11-30T00:21:08.714Z,28.38
2022-11-30T00:23:37.519Z,28.98
2022-11-30T00:26:07.341Z,28.65
2022-11-30T00:28:35.151Z,28.08
2022-11-30T00:31:04.072Z,28.50
2022-11-30T00:33:33.990Z,30.23
2022-11-30T00:36:02.718Z,29.50
2022-11-30T00:38:31.231Z,29.00
2022-11-30T00:40:57.989Z,29.55
2022-11-30T00:43:24.706Z,29.48
2022-11-30T00:45:51.406Z,28.92
2022-11-30T00:48:18.588Z,28.63
2022-11-30T00:50:45.385Z,28.35
2022-11-30T00:53:12.207Z,26.75
2022-11-30T00:55:38.921Z,28.45
2022-11-30T00:58:07.393Z,29.60
2022-11-30T01:00:34.273Z,29.83
2022-11-30T01:03:01.031Z,28.58
2022-11-30T01:05:27.748Z,29.48
2022-11-30T01:07:54.464Z,30.48
2022-11-30T01:10:23.077Z,28.50
2022-11-30T01:12:49.798Z,29.88
2022-11-30T01:15:16.753Z,28.63
2022-11-30T01:17:43.608Z,29.52
2022-11-30T01:20:11.035Z,31.33
2022-11-30T01:22:37.889Z,31.15
2022-11-30T01:25:04.982Z,30.25
2022-11-30T01:27:31.667Z,29.92
2022-11-30T01:29:58.529Z,30.58
2022-11-30T01:32:25.406Z,31.00
2022-11-30T01:34:52.267Z,30.35
2022-11-30T01:37:18.997Z,30.10
2022-11-30T01:39:45.942Z,29.52
2022-11-30T01:42:19.155Z,30.17
2022-11-30T01:45:00.120Z,30.40
2022-11-30T01:47:39.701Z,30.13
2022-11-30T01:50:11.180Z,31.63
2022-11-30T01:52:43.495Z,30.70
2022-11-30T01:55:15.938Z,29.75
2022-11-30T01:57:48.057Z,30.00
2022-11-30T02:00:16.311Z,31.55
2022-11-30T02:03:09.098Z,31.10
2022-11-30T02:05:37.748Z,29.85
2022-11-30T02:08:06.441Z,31.90
2022-11-30T02:10:37.083Z,30.23
2022-11-30T02:13:15.744Z,31.42
2022-11-30T02:15:57.867Z,30.25
2022-11-30T02:18:34.933Z,30.10
2022-11-30T02:21:12.051Z,31.00
2022-11-30T02:24:03.530Z,32.13
2022-11-30T02:26:30.279Z,29.08
2022-11-30T02:29:34.915Z,30.10
2022-11-30T02:32:24.669Z,30.75
2022-11-30T02:34:52.894Z,30.40
2022-11-30T02:37:21.594Z,29.35
2022-11-30T02:39:48.496Z,32.22
2022-11-30T02:42:15.989Z,32.30
2022-11-30T02:44:50.162Z,31.90
2022-11-30T02:47:39.182Z,29.92
2022-11-30T02:50:16.704Z,31.38
2022-11-30T02:52:44.665Z,30.73
2022-11-30T02:55:17.457Z,32.20
2022-11-30T02:57:44.323Z,31.77
2022-11-30T03:00:12.567Z,34.28
2022-11-30T03:02:40.454Z,33.83
2022-11-30T03:05:08.547Z,33.28
2022-11-30T03:07:35.624Z,34.10
2022-11-30T03:10:03.269Z,32.67
2022-11-30T03:12:30.128Z,33.20
2022-11-30T03:14:56.861Z,31.80
2022-11-30T03:17:23.854Z,32.45
2022-11-30T03:19:50.558Z,33.55
2022-11-30T03:22:17.316Z,33.63
2022-11-30T03:24:44.206Z,32.80
2022-11-30T03:27:11.528Z,32.63
2022-11-30T03:29:39.314Z,34.60
2022-11-30T03:32:06.248Z,32.83
2022-11-30T03:34:33.501Z,33.58
2022-11-30T03:37:00.425Z,33.60
2022-11-30T03:39:27.390Z,34.83
2022-11-30T03:41:54.196Z,34.55
2022-11-30T03:44:21.486Z,34.47
2022-11-30T03:46:48.211Z,32.13
2022-11-30T03:49:14.969Z,34.22
2022-11-30T03:51:41.802Z,33.10
2022-11-30T03:54:08.501Z,33.92
2022-11-30T03:56:35.119Z,33.35
2022-11-30T03:59:01.853Z,34.97
2022-11-30T04:01:28.803Z,35.40
2022-11-30T04:03:55.599Z,36.00
2022-11-30T04:06:22.616Z,34.70
2022-11-30T04:08:49.687Z,36.42
2022-11-30T04:11:16.569Z,35.42
2022-11-30T04:13:44.093Z,35.90
2022-11-30T04:16:11.418Z,34.88
2022-11-30T04:18:39.054Z,34.25
2022-11-30T04:21:06.786Z,35.58
2022-11-30T04:23:36.258Z,36.58
2022-11-30T04:26:08.546Z,34.50
2022-11-30T04:28:35.808Z,36.50
2022-11-30T04:31:03.074Z,35.50
2022-11-30T04:33:30.574Z,36.03
2022-11-30T04:36:03.104Z,37.35
2022-11-30T04:38:30.623Z,32.95
2022-11-30T04:40:57.302Z,34.55
2022-11-30T04:43:24.274Z,36.50
2022-11-30T04:45:51.293Z,34.80
2022-11-30T04:48:18.815Z,36.85
2022-11-30T04:50:45.543Z,34.53
2022-11-30T04:53:12.387Z,35.05
2022-11-30T04:55:39.207Z,34.55
2022-11-30T04:58:06.893Z,34.15
2022-11-30T05:00:34.089Z,35.65
2022-11-30T05:03:00.926Z,34.38
2022-11-30T05:05:27.767Z,33.80
2022-11-30T05:07:59.469Z,32.70
2022-11-30T05:10:27.834Z,33.78
2022-11-30T05:12:56.294Z,34.75
2022-11-30T05:15:23.023Z,34.45
2022-11-30T05:17:49.803Z,34.17
2022-11-30T05:20:16.554Z,35.15
2022-11-30T05:22:43.365Z,33.88
2022-11-30T05:25:10.501Z,35.20
2022-11-30T05:27:37.553Z,34.05
2022-11-30T05:30:05.636Z,36.03
2022-11-30T05:32:32.604Z,35.72
2022-11-30T05:34:59.539Z,34.97
2022-11-30T05:37:26.452Z,32.95
2022-11-30T05:39:53.058Z,33.60
2022-11-30T05:42:19.844Z,35.42
2022-11-30T05:44:48.280Z,35.40
2022-11-30T05:47:15.431Z,35.22
2022-11-30T05:49:42.196Z,34.97
2022-11-30T05:52:08.968Z,34.38
2022-11-30T05:54:35.704Z,35.25
2022-11-30T05:57:02.575Z,34.33
2022-11-30T05:59:29.218Z,34.67
2022-11-30T06:01:56.040Z,34.70
2022-11-30T06:04:22.981Z,35.53
2022-11-30T06:06:50.978Z,34.92
2022-11-30T06:09:17.738Z,34.13
2022-11-30T06:11:44.476Z,35.67
2022-11-30T06:14:11.280Z,33.10
2022-11-30T06:16:39.660Z,34.78
2022-11-30T06:19:06.482Z,34.35
2022-11-30T06:21:33.378Z,33.65
2022-11-30T06:24:00.147Z,34.97
2022-11-30T06:26:26.892Z,33.03
2022-11-30T06:28:53.560Z,33.47
2022-11-30T06:31:20.496Z,34.35
2022-11-30T06:33:47.195Z,36.53
2022-11-30T06:36:13.945Z,35.00
2022-11-30T06:38:40.705Z,33.67
2022-11-30T06:41:09.893Z,35.40
2022-11-30T06:43:38.167Z,35.20
2022-11-30T06:46:06.895Z,34.28
2022-11-30T06:48:34.981Z,34.75
2022-11-30T06:51:04.498Z,34.58
2022-11-30T06:53:31.956Z,34.78
2022-11-30T06:55:58.596Z,34.25
2022-11-30T06:58:25.288Z,33.47
2022-11-30T07:00:52.182Z,35.00
2022-11-30T07:03:18.879Z,35.22
2022-11-30T07:05:46.368Z,36.08
2022-11-30T07:08:14.729Z,35.42
2022-11-30T07:10:42.794Z,34.53
2022-11-30T07:13:13.739Z,34.47
2022-11-30T07:15:41.752Z,34.63
2022-11-30T07:18:08.973Z,37.33
2022-11-30T07:20:36.825Z,34.45
2022-11-30T07:23:27.216Z,35.63
2022-11-30T07:26:09.593Z,34.25
2022-11-30T07:28:46.708Z,36.92
2022-11-30T07:31:25.114Z,34.88
2022-11-30T07:33:52.174Z,36.15
2022-11-30T07:36:20.696Z,34.95
2022-11-30T07:38:47.904Z,33.60
2022-11-30T07:41:14.682Z,35.45
2022-11-30T07:43:41.547Z,34.40
2022-11-30T07:46:11.416Z,34.50
2022-11-30T07:48:38.289Z,35.20
2022-11-30T07:51:27.141Z,35.65
2022-11-30T07:53:59.374Z,35.00
2022-11-30T07:56:27.200Z,34.70
2022-11-30T07:58:56.368Z,35.30
2022-11-30T08:01:25.475Z,33.97
2022-11-30T08:03:53.247Z,33.67
2022-11-30T08:06:22.403Z,34.88
2022-11-30T08:08:51.533Z,36.13
2022-11-30T08:11:20.429Z,36.17
2022-11-30T08:13:47.497Z,33.28
2022-11-30T08:16:22.563Z,35.08
2022-11-30T08:18:49.933Z,35.22
2022-11-30T08:21:19.341Z,34.55
2022-11-30T08:23:49.426Z,34.55
2022-11-30T08:26:29.581Z,33.67
2022-11-30T08:28:57.639Z,35.72
2022-11-30T08:31:30.335Z,34.53
2022-11-30T08:34:02.076Z,32.92
2022-11-30T08:36:29.578Z,34.47
2022-11-30T08:39:00.800Z,33.60
2022-11-30T08:41:27.844Z,34.97
2022-11-30T08:43:54.933Z,32.28
2022-11-30T08:49:26.330Z,33.17
2022-11-30T08:54:47.451Z,34.22
2022-11-30T08:57:17.482Z,32.85
2022-11-30T08:59:44.788Z,34.75
2022-11-30T09:02:14.035Z,34.00
2022-11-30T09:04:40.887Z,33.53
2022-11-30T09:07:09.545Z,33.00
2022-11-30T09:09:36.962Z,34.97
2022-11-30T09:12:03.938Z,33.08
2022-11-30T09:14:30.733Z,33.63
2022-11-30T09:16:57.501Z,35.10
2022-11-30T09:19:25.204Z,35.35
2022-11-30T09:21:52.657Z,32.78
2022-11-30T09:24:20.815Z,35.38
2022-11-30T09:26:48.705Z,33.65
2022-11-30T09:29:15.429Z,36.35
2022-11-30T09:31:42.287Z,34.47
2022-11-30T09:34:11.176Z,34.58
2022-11-30T09:36:37.942Z,34.38
2022-11-30T09:39:04.598Z,33.80
2022-11-30T09:41:34.296Z,33.58
2022-11-30T09:44:19.302Z,33.15
2022-11-30T09:47:02.709Z,32.47
2022-11-30T09:49:40.899Z,36.63
2022-11-30T09:54:42.197Z,32.08
2022-11-30T09:57:52.545Z,33.75
2022-11-30T10:00:21.975Z,34.55
2022-11-30T10:02:50.867Z,33.67
2022-11-30T10:05:22.712Z,34.72
2022-11-30T10:08:12.821Z,33.05
2022-11-30T10:10:43.213Z,34.10
2022-11-30T10:13:19.511Z,33.47
2022-11-30T10:16:04.116Z,32.22
2022-11-30T10:18:45.895Z,33.42
2022-11-30T10:21:46.292Z,34.10
2022-11-30T10:25:00.984Z,33.28
2022-11-30T10:28:24.036Z,33.78
2022-11-30T10:30:50.205Z,32.28
2022-11-30T10:33:20.006Z,33.83
2022-11-30T10:35:50.922Z,33.03
2022-11-30T10:38:31.826Z,34.38
2022-11-30T10:41:13.684Z,34.17
2022-11-30T10:43:55.091Z,33.85
2022-11-30T10:46:34.297Z,33.22
2022-11-30T10:49:16.656Z,32.13
2022-11-30T10:51:47.436Z,33.08
2022-11-30T10:54:16.937Z,32.63
2022-11-30T10:56:43.822Z,34.20
2022-11-30T10:59:46.318Z,34.20
2022-11-30T11:02:42.642Z,32.67
2022-11-30T11:05:15.088Z,34.00
2022-11-30T11:08:06.846Z,33.10
2022-11-30T11:10:40.208Z,31.85
2022-11-30T11:13:35.993Z,34.15
2022-11-30T11:16:04.643Z,32.30
2022-11-30T11:18:33.329Z,32.47
2022-11-30T11:21:16.509Z,34.63
2022-11-30T11:23:44.638Z,34.92
2022-11-30T11:26:22.469Z,34.88
2022-11-30T11:28:52.362Z,33.00
2022-11-30T11:31:42.233Z,34.53
2022-11-30T11:34:25.440Z,34.92
2022-11-30T11:37:26.436Z,32.50
2022-11-30T11:40:08.164Z,33.08
2022-11-30T11:42:54.620Z,35.08
2022-11-30T11:45:37.006Z,31.80
2022-11-30T11:48:30.720Z,34.33
2022-11-30T11:51:08.035Z,32.58
2022-11-30T11:53:47.353Z,34.13
2022-11-30T11:56:20.983Z,32.20
2022-11-30T11:58:52.431Z,32.85
2022-11-30T12:01:45.729Z,33.10
2022-11-30T12:04:36.153Z,32.67
2022-11-30T12:07:21.029Z,33.55
2022-11-30T12:10:00.013Z,33.85
2022-11-30T12:12:28.227Z,33.42
2022-11-30T12:14:56.691Z,33.00
2022-11-30T12:17:47.502Z,34.47
2022-11-30T12:20:40.989Z,32.83
2022-11-30T12:23:25.723Z,32.80
2022-11-30T12:26:06.992Z,32.72
2022-11-30T12:28:46.084Z,32.67
2022-11-30T12:31:18.461Z,32.50
2022-11-30T12:33:54.479Z,34.10
2022-11-30T12:36:35.133Z,32.38
2022-11-30T12:39:10.923Z,33.53
2022-11-30T12:41:54.793Z,33.05
2022-11-30T12:44:42.152Z,32.92
2022-11-30T12:47:42.094Z,33.53
2022-11-30T12:50:25.365Z,35.13
2022-11-30T12:53:14.981Z,30.42
2022-11-30T12:56:10.416Z,32.78
2022-11-30T12:58:53.110Z,33.35
2022-11-30T13:01:35.179Z,32.17
2022-11-30T13:04:16.146Z,33.83
2022-11-30T13:06:58.319Z,32.55
2022-11-30T13:09:47.208Z,32.13
2022-11-30T13:12:25.013Z,32.53
2022-11-30T13:14:58.594Z,32.97
2022-11-30T13:17:26.694Z,33.90
2022-11-30T13:19:56.260Z,31.40
2022-11-30T13:22:45.070Z,32.67
2022-11-30T13:25:59.378Z,32.78
2022-11-30T13:28:34.608Z,31.95
2022-11-30T13:31:05.391Z,32.58
2022-11-30T13:33:35.279Z,30.40
2022-11-30T13:36:07.489Z,31.25
2022-11-30T13:38:37.519Z,32.72
2022-11-30T13:41:07.264Z,33.20
2022-11-30T13:43:44.511Z,32.72
2022-11-30T13:46:12.281Z,31.20
2022-11-30T13:48:41.447Z,34.22
2022-11-30T13:51:08.685Z,33.13
2022-11-30T13:53:37.254Z,33.08
2022-11-30T13:56:07.916Z,32.85
2022-11-30T13:58:35.276Z,33.45
2022-11-30T14:01:24.522Z,32.13
2022-11-30T14:04:29.395Z,30.42
2022-11-30T14:06:56.512Z,32.33
2022-11-30T14:09:41.644Z,33.20
2022-11-30T14:12:46.563Z,31.95
2022-11-30T14:15:38.399Z,30.25
2022-11-30T14:18:08.180Z,32.88
2022-11-30T14:20:39.165Z,32.90
2022-11-30T14:23:14.648Z,31.45
2022-11-30T14:25:50.303Z,32.25
2022-11-30T14:28:40.226Z,31.13
2022-11-30T14:31:16.415Z,31.25
2022-11-30T14:33:57.637Z,31.73
2022-11-30T14:36:34.094Z,31.50
2022-11-30T14:39:01.168Z,32.42
2022-11-30T14:41:30.106Z,31.83
2022-11-30T14:44:06.295Z,30.73
2022-11-30T14:46:35.130Z,32.88
2022-11-30T14:49:24.469Z,34.25
2022-11-30T14:52:03.608Z,31.30
2022-11-30T14:54:36.255Z,31.08
2022-11-30T14:57:11.574Z,31.98
2022-11-30T14:59:54.013Z,33.03
2022-11-30T15:02:30.695Z,31.98
2022-11-30T15:04:59.065Z,34.42
2022-11-30T15:07:27.585Z,31.50
2022-11-30T15:10:05.556Z,31.00
2022-11-30T15:12:33.605Z,31.65
2022-11-30T15:15:21.566Z,30.48
2022-11-30T15:17:55.422Z,30.20
2022-11-30T15:20:27.315Z,31.10
2022-11-30T15:22:56.839Z,32.05
2022-11-30T15:25:30.944Z,32.40
2022-11-30T15:27:58.935Z,30.77
2022-11-30T15:30:25.846Z,31.85
2022-11-30T15:32:52.896Z,31.20
2022-11-30T15:35:30.744Z,30.63
2022-11-30T15:38:10.492Z,32.72
2022-11-30T15:40:37.280Z,30.85
2022-11-30T15:43:04.596Z,30.92
2022-11-30T15:45:36.154Z,30.48
2022-11-30T15:48:07.845Z,30.75
2022-11-30T15:50:39.786Z,31.02
2022-11-30T15:53:28.391Z,32.13
2022-11-30T15:55:59.004Z,32.40
2022-11-30T15:58:33.747Z,30.38
2022-11-30T16:01:06.545Z,31.67
2022-11-30T16:03:35.714Z,32.00
2022-11-30T16:06:07.201Z,29.20
2022-11-30T16:08:33.949Z,31.02
2022-11-30T16:11:04.722Z,29.88
2022-11-30T16:13:34.693Z,30.20
2022-11-30T16:16:01.685Z,30.17
2022-11-30T16:18:28.570Z,28.45
2022-11-30T16:20:59.066Z,30.98
2022-11-30T16:23:27.175Z,30.25
2022-11-30T16:25:54.390Z,30.70
2022-11-30T16:28:23.066Z,30.05
2022-11-30T16:30:50.451Z,32.17
2022-11-30T16:33:21.080Z,30.98
2022-11-30T16:36:23.256Z,30.15
2022-11-30T16:38:52.064Z,31.17
2022-11-30T16:41:22.674Z,31.45
2022-11-30T16:43:52.223Z,30.27
2022-11-30T16:46:28.021Z,30.40
2022-11-30T16:48:55.491Z,32.33
2022-11-30T16:51:29.569Z,31.50
2022-11-30T16:53:56.414Z,30.90
2022-11-30T16:56:24.062Z,30.80
2022-11-30T16:58:50.850Z,30.83
2022-11-30T17:01:39.600Z,33.88
2022-11-30T17:04:12.472Z,31.45
2022-11-30T17:06:39.179Z,33.80
2022-11-30T17:09:06.175Z,33.53
2022-11-30T17:11:34.934Z,33.83
2022-11-30T17:14:01.670Z,31.38
2022-11-30T17:16:28.470Z,33.83
2022-11-30T17:18:55.361Z,33.40
2022-11-30T17:21:33.424Z,32.97
2022-11-30T17:24:00.601Z,34.20
2022-11-30T17:26:28.369Z,33.10
2022-11-30T17:28:55.484Z,32.38
2022-11-30T17:31:22.435Z,33.20
2022-11-30T17:33:49.260Z,33.92
2022-11-30T17:36:17.126Z,33.53
2022-11-30T17:38:44.261Z,34.75
2022-11-30T17:41:19.351Z,34.40
2022-11-30T17:43:47.433Z,33.95
2022-11-30T17:46:16.491Z,31.42
2022-11-30T17:48:44.007Z,32.85
2022-11-30T17:51:11.082Z,32.75
2022-11-30T17:53:38.723Z,32.97
2022-11-30T17:56:14.298Z,33.75
2022-11-30T17:58:44.027Z,34.78
2022-11-30T18:01:21.239Z,33.40
2022-11-30T18:03:48.192Z,32.55
2022-11-30T18:06:15.342Z,33.60
2022-11-30T18:08:42.591Z,33.17
2022-11-30T18:11:14.989Z,33.63
2022-11-30T18:13:42.070Z,35.72
2022-11-30T18:16:23.524Z,32.97
2022-11-30T18:18:50.708Z,34.25
2022-11-30T18:21:20.534Z,33.33
2022-11-30T18:23:48.787Z,32.92
2022-11-30T18:26:19.211Z,32.40
2022-11-30T18:28:46.088Z,31.77
2022-11-30T18:31:13.292Z,33.00
2022-11-30T18:33:40.299Z,33.92
2022-11-30T18:36:07.885Z,34.53
2022-11-30T18:38:38.534Z,33.17
2022-11-30T18:41:06.576Z,34.35
2022-11-30T18:43:34.607Z,33.63
2022-11-30T18:46:09.414Z,33.70
2022-11-30T18:48:37.116Z,32.92
2022-11-30T18:51:15.712Z,33.03
2022-11-30T18:57:13.771Z,32.45
2022-11-30T18:59:40.561Z,32.63
2022-11-30T19:02:09.106Z,33.83
2022-11-30T19:04:36.037Z,34.05
2022-11-30T19:07:02.793Z,32.42
2022-11-30T19:09:29.482Z,34.17
2022-11-30T19:11:57.988Z,33.85
2022-11-30T19:14:24.751Z,33.90
2022-11-30T19:16:51.587Z,33.80
2022-11-30T19:19:18.439Z,34.28
2022-11-30T19:21:47.633Z,34.33
2022-11-30T19:24:15.906Z,35.40
2022-11-30T19:27:15.226Z,35.75
2022-11-30T19:29:42.987Z,34.58
2022-11-30T19:32:09.711Z,33.17
2022-11-30T19:34:36.422Z,35.60
2022-11-30T19:37:05.246Z,33.67
2022-11-30T19:39:35.053Z,33.45
2022-11-30T19:42:01.794Z,34.42
2022-11-30T19:44:28.549Z,33.05
2022-11-30T19:46:55.257Z,35.08
2022-11-30T19:49:22.016Z,35.50
2022-11-30T19:51:48.756Z,34.60
2022-11-30T19:54:15.560Z,35.53
2022-11-30T19:56:43.193Z,34.95
2022-11-30T19:59:10.220Z,35.45
2022-11-30T20:01:37.129Z,33.75
2022-11-30T20:04:05.219Z,35.33
2022-11-30T20:06:46.362Z,34.22
2022-11-30T20:09:13.189Z,35.03
2022-11-30T20:11:53.958Z,34.22
2022-11-30T20:14:22.449Z,34.42
2022-11-30T20:17:32.165Z,35.55
2022-11-30T20:19:58.979Z,34.95
2022-11-30T20:22:25.984Z,33.88
2022-11-30T20:25:19.146Z,35.03
2022-11-30T20:27:54.516Z,34.72
2022-11-30T20:30:21.241Z,36.28
2022-11-30T20:32:48.158Z,33.97
2022-11-30T20:35:43.267Z,33.85
2022-11-30T20:38:10.025Z,35.90
2022-11-30T20:40:39.721Z,33.95
2022-11-30T20:43:06.822Z,35.47
2022-11-30T20:45:33.503Z,35.35
2022-11-30T20:48:00.429Z,35.90
2022-11-30T20:50:27.102Z,34.75
2022-11-30T20:52:54.144Z,35.33
2022-11-30T20:55:21.010Z,34.17
2022-11-30T20:57:47.917Z,34.22
2022-11-30T21:00:15.480Z,34.92
2022-11-30T21:02:42.246Z,34.05
2022-11-30T21:05:09.132Z,33.45
2022-11-30T21:07:36.092Z,35.67
2022-11-30T21:10:03.412Z,35.17
2022-11-30T21:12:30.109Z,32.83
2022-11-30T21:14:56.960Z,34.42
2022-11-30T21:17:23.693Z,34.47
2022-11-30T21:19:50.368Z,35.50
2022-11-30T21:22:17.388Z,34.65
2022-11-30T21:24:44.128Z,33.15
2022-11-30T21:27:20.251Z,34.90
2022-11-30T21:29:47.225Z,35.72
2022-11-30T21:32:14.033Z,34.75
2022-11-30T21:34:40.759Z,34.97
2022-11-30T21:37:07.426Z,35.33
2022-11-30T21:39:35.605Z,34.00
2022-11-30T21:42:02.353Z,33.78
2022-11-30T21:44:30.224Z,34.80
2022-11-30T21:46:56.961Z,36.17
2022-11-30T21:49:49.901Z,36.22
2022-11-30T21:52:16.553Z,32.97
2022-11-30T21:54:43.613Z,34.05
2022-11-30T21:57:10.376Z,34.47
2022-11-30T21:59:37.199Z,34.25
2022-11-30T22:02:04.332Z,34.35
2022-11-30T22:04:36.330Z,34.22
2022-11-30T22:07:03.036Z,33.72
2022-11-30T22:09:29.740Z,35.47
2022-11-30T22:11:57.652Z,34.83
2022-11-30T22:14:24.736Z,34.38
2022-11-30T22:16:51.514Z,34.78
2022-11-30T22:19:18.294Z,34.55
2022-11-30T22:21:49.694Z,35.33
2022-11-30T22:26:45.411Z,33.65
2022-11-30T22:29:12.130Z,33.50
2022-11-30T22:31:42.514Z,35.28
2022-11-30T22:34:10.122Z,33.63
2022-11-30T22:36:38.942Z,34.45
2022-11-30T22:39:12.059Z,34.80
2022-11-30T22:41:40.202Z,34.78
2022-11-30T22:44:07.672Z,33.78
2022-11-30T22:46:37.242Z,36.25
2022-11-30T22:49:06.669Z,37.67
2022-11-30T22:51:35.005Z,35.90
2022-11-30T22:54:02.706Z,35.50
2022-11-30T22:56:32.651Z,33.88
2022-11-30T22:59:00.848Z,34.90
2022-11-30T23:01:35.061Z,35.72
2022-11-30T23:04:13.369Z,33.90
2022-11-30T23:09:11.348Z,34.30
2022-11-30T23:11:38.645Z,34.05
2022-11-30T23:14:08.170Z,35.47
2022-11-30T23:16:36.793Z,34.75
2022-11-30T23:19:04.454Z,35.00
2022-11-30T23:21:40.368Z,36.42
2022-11-30T23:24:10.762Z,36.30
2022-11-30T23:26:38.840Z,34.50
2022-11-30T23:29:10.779Z,35.90
2022-11-30T23:31:39.601Z,34.70
2022-11-30T23:34:09.128Z,36.42
2022-11-30T23:36:36.717Z,35.47
2022-11-30T23:39:07.441Z,36.10
2022-11-30T23:41:34.137Z,33.10
2022-11-30T23:44:01.361Z,35.22
2022-11-30T23:46:28.222Z,33.13
2022-11-30T23:48:55.811Z,33.88
2022-11-30T23:51:23.626Z,34.72
2022-11-30T23:53:50.612Z,34.00
2022-11-30T23:56:19.435Z,33.35
2022-11-30T23:58:46.432Z,34.10
